sensor_id;sensor_type;location;lat;lon;timestamp;pressure;altitude;pressure_sealevel;temperature;humidity
48790;BME280;41718;51.980;5.734;2023-03-25T00:01:15;99995.50;;;8.23;100.00
48790;BME280;41718;51.980;5.734;2023-03-25T00:06:18;99996.34;;;8.24;100.00
48790;BME280;41718;51.980;5.734;2023-03-25T00:11:20;99995.44;;;8.22;100.00
48790;BME280;41718;51.980;5.734;2023-03-25T00:16:22;100004.88;;;8.20;100.00
48790;BME280;41718;51.980;5.734;2023-03-25T00:21:23;100004.88;;;8.18;100.00
48790;BME280;41718;51.980;5.734;2023-03-25T00:26:25;100001.44;;;8.19;100.00
48790;BME280;41718;51.980;5.734;2023-03-25T00:31:33;99998.00;;;8.17;100.00
48790;BME280;41718;51.980;5.734;2023-03-25T00:36:34;99998.00;;;8.20;100.00
48790;BME280;41718;51.980;5.734;2023-03-25T00:41:38;100000.59;;;8.19;100.00
48790;BME280;41718;51.980;5.734;2023-03-25T00:46:43;99996.34;;;8.24;100.00
48790;BME280;41718;51.980;5.734;2023-03-25T00:51:45;99992.81;;;8.16;100.00
48790;BME280;41718;51.980;5.734;2023-03-25T00:56:53;99994.53;;;8.15;100.00
48790;BME280;41718;51.980;5.734;2023-03-25T01:01:55;99992.84;;;8.17;100.00
48790;BME280;41718;51.980;5.734;2023-03-25T01:06:59;99994.56;;;8.18;100.00
48790;BME280;41718;51.980;5.734;2023-03-25T01:12:01;99998.81;;;8.16;100.00
48790;BME280;41718;51.980;5.734;2023-03-25T01:17:03;99994.53;;;8.15;100.00
48790;BME280;41718;51.980;5.734;2023-03-25T01:22:05;99991.13;;;8.19;100.00
48790;BME280;41718;51.980;5.734;2023-03-25T01:27:06;100001.44;;;8.21;100.00
48790;BME280;41718;51.980;5.734;2023-03-25T01:32:08;99998.81;;;8.16;100.00
48790;BME280;41718;51.980;5.734;2023-03-25T01:37:10;100000.53;;;8.16;100.00
48790;BME280;41718;51.980;5.734;2023-03-25T01:42:11;99989.41;;;8.18;100.00
48790;BME280;41718;51.980;5.734;2023-03-25T01:47:13;99983.41;;;8.19;100.00
48790;BME280;41718;51.980;5.734;2023-03-25T01:52:20;99982.50;;;8.14;100.00
48790;BME280;41718;51.980;5.734;2023-03-25T01:57:24;99981.59;;;8.11;100.00
48790;BME280;41718;51.980;5.734;2023-03-25T02:02:27;99983.09;;;7.90;100.00
48790;BME280;41718;51.980;5.734;2023-03-25T02:07:38;99976.19;;;7.86;100.00
48790;BME280;41718;51.980;5.734;2023-03-25T02:12:43;99972.66;;;7.80;100.00
48790;BME280;41718;51.980;5.734;2023-03-25T02:23:17;99968.31;;;7.73;100.00
48790;BME280;41718;51.980;5.734;2023-03-25T02:39:46;99973.03;;;7.42;100.00
48790;BME280;41718;51.980;5.734;2023-03-25T02:44:58;99979.81;;;7.34;100.00
48790;BME280;41718;51.980;5.734;2023-03-25T02:50:09;99964.38;;;7.34;100.00
48790;BME280;41718;51.980;5.734;2023-03-25T02:55:14;99970.38;;;7.36;100.00
48790;BME280;41718;51.980;5.734;2023-03-25T03:00:22;99960.16;;;7.37;100.00
48790;BME280;41718;51.980;5.734;2023-03-25T03:05:25;99961.81;;;7.37;100.00
48790;BME280;41718;51.980;5.734;2023-03-25T03:10:43;99947.94;;;7.24;100.00
48790;BME280;41718;51.980;5.734;2023-03-25T03:16:05;99946.16;;;7.20;100.00
48790;BME280;41718;51.980;5.734;2023-03-25T03:21:19;99960.78;;;7.23;100.00
48790;BME280;41718;51.980;5.734;2023-03-25T03:26:54;99967.66;;;7.22;100.00
48790;BME280;41718;51.980;5.734;2023-03-25T03:32:02;99965.00;;;7.17;100.00
48790;BME280;41718;51.980;5.734;2023-03-25T03:37:09;99973.59;;;7.18;100.00
48790;BME280;41718;51.980;5.734;2023-03-25T03:42:14;99965.88;;;7.18;100.00
48790;BME280;41718;51.980;5.734;2023-03-25T03:47:21;99970.16;;;7.17;100.00
48790;BME280;41718;51.980;5.734;2023-03-25T03:52:29;99966.72;;;7.18;100.00
48790;BME280;41718;51.980;5.734;2023-03-25T03:57:43;99967.66;;;7.24;100.00
48790;BME280;41718;51.980;5.734;2023-03-25T04:03:14;99969.44;;;7.26;100.00
48790;BME280;41718;51.980;5.734;2023-03-25T04:08:26;99968.59;;;7.29;100.00
48790;BME280;41718;51.980;5.734;2023-03-25T04:13:35;99969.50;;;7.32;100.00
48790;BME280;41718;51.980;5.734;2023-03-25T04:18:38;99966.88;;;7.31;100.00
48790;BME280;41718;51.980;5.734;2023-03-25T04:23:40;99958.38;;;7.33;100.00
48790;BME280;41718;51.980;5.734;2023-03-25T04:28:41;99957.50;;;7.33;100.00
48790;BME280;41718;51.980;5.734;2023-03-25T04:33:44;99946.38;;;7.37;100.00
48790;BME280;41718;51.980;5.734;2023-03-25T04:38:50;99952.34;;;7.33;100.00
48790;BME280;41718;51.980;5.734;2023-03-25T04:43:53;99958.38;;;7.33;100.00
48790;BME280;41718;51.980;5.734;2023-03-25T04:48:55;99946.34;;;7.32;100.00
48790;BME280;41718;51.980;5.734;2023-03-25T04:53:58;99942.09;;;7.34;100.00
48790;BME280;41718;51.980;5.734;2023-03-25T04:58:59;99932.69;;;7.38;100.00
48790;BME280;41718;51.980;5.734;2023-03-25T05:04:03;99956.75;;;7.41;100.00
48790;BME280;41718;51.980;5.734;2023-03-25T05:09:18;99940.44;;;7.39;100.00
48790;BME280;41718;51.980;5.734;2023-03-25T05:14:20;99960.94;;;7.32;100.00
48790;BME280;41718;51.980;5.734;2023-03-25T05:19:22;99957.44;;;7.27;100.00
48790;BME280;41718;51.980;5.734;2023-03-25T05:24:23;99936.94;;;7.36;100.00
48790;BME280;41718;51.980;5.734;2023-03-25T05:29:27;99939.59;;;7.42;100.00
48790;BME280;41718;51.980;5.734;2023-03-25T05:34:34;99968.66;;;7.32;100.00
48790;BME280;41718;51.980;5.734;2023-03-25T05:39:35;99966.97;;;7.35;100.00
48790;BME280;41718;51.980;5.734;2023-03-25T05:44:38;99984.09;;;7.32;100.00
48790;BME280;41718;51.980;5.734;2023-03-25T05:49:47;99972.03;;;7.29;100.00
48790;BME280;41718;51.980;5.734;2023-03-25T05:54:49;99969.53;;;7.37;100.00
48790;BME280;41718;51.980;5.734;2023-03-25T05:59:50;99981.44;;;7.27;100.00
48790;BME280;41718;51.980;5.734;2023-03-25T06:04:52;99979.72;;;7.28;100.00
48790;BME280;41718;51.980;5.734;2023-03-25T06:09:53;99990.81;;;7.25;100.00
48790;BME280;41718;51.980;5.734;2023-03-25T06:14:56;99989.88;;;7.18;100.00
48790;BME280;41718;51.980;5.734;2023-03-25T06:19:57;99995.81;;;7.14;100.00
48790;BME280;41718;51.980;5.734;2023-03-25T06:25:00;100005.22;;;7.14;100.00
48790;BME280;41718;51.980;5.734;2023-03-25T06:30:08;100016.44;;;7.16;100.00
48790;BME280;41718;51.980;5.734;2023-03-25T06:35:10;100013.97;;;7.24;100.00
48790;BME280;41718;51.980;5.734;2023-03-25T06:40:13;100016.59;;;7.28;100.00
48790;BME280;41718;51.980;5.734;2023-03-25T06:45:15;100026.91;;;7.28;100.00
48790;BME280;41718;51.980;5.734;2023-03-25T06:50:17;100031.19;;;7.31;100.00
48790;BME280;41718;51.980;5.734;2023-03-25T06:55:19;100020.97;;;7.34;100.00
48790;BME280;41718;51.980;5.734;2023-03-25T07:00:20;100035.63;;;7.39;100.00
48790;BME280;41718;51.980;5.734;2023-03-25T07:05:24;100024.50;;;7.42;100.00
48790;BME280;41718;51.980;5.734;2023-03-25T07:10:26;100041.75;;;7.48;100.00
48790;BME280;41718;51.980;5.734;2023-03-25T07:15:28;100029.81;;;7.53;100.00
48790;BME280;41718;51.980;5.734;2023-03-25T07:20:29;100039.09;;;7.43;100.00
48790;BME280;41718;51.980;5.734;2023-03-25T07:25:31;100038.97;;;7.34;100.00
48790;BME280;41718;51.980;5.734;2023-03-25T07:30:32;100046.63;;;7.29;100.00
48790;BME280;41718;51.980;5.734;2023-03-25T07:35:35;100051.84;;;7.34;100.00
48790;BME280;41718;51.980;5.734;2023-03-25T07:40:37;100070.03;;;7.44;100.00
48790;BME280;41718;51.980;5.734;2023-03-25T07:45:38;100057.94;;;7.40;100.00
48790;BME280;41718;51.980;5.734;2023-03-25T07:50:44;100055.44;;;7.45;100.00
48790;BME280;41718;51.980;5.734;2023-03-25T07:55:46;100058.88;;;7.47;100.00
48790;BME280;41718;51.980;5.734;2023-03-25T08:00:51;100056.47;;;7.59;100.00
48790;BME280;41718;51.980;5.734;2023-03-25T08:05:52;100064.47;;;7.78;100.00
48790;BME280;41718;51.980;5.734;2023-03-25T08:10:54;100065.22;;;7.69;100.00
48790;BME280;41718;51.980;5.734;2023-03-25T08:15:56;100074.63;;;7.67;100.00
48790;BME280;41718;51.980;5.734;2023-03-25T08:20:58;100069.66;;;7.81;100.00
48790;BME280;41718;51.980;5.734;2023-03-25T08:26:00;100068.97;;;7.94;100.00
48790;BME280;41718;51.980;5.734;2023-03-25T08:31:05;100062.22;;;8.02;100.00
48790;BME280;41718;51.980;5.734;2023-03-25T08:36:09;100071.72;;;8.06;100.00
48790;BME280;41718;51.980;5.734;2023-03-25T08:41:14;100068.34;;;8.12;100.00
48790;BME280;41718;51.980;5.734;2023-03-25T08:46:16;100080.53;;;8.27;100.00
48790;BME280;41718;51.980;5.734;2023-03-25T08:51:17;100082.25;;;8.28;100.00
48790;BME280;41718;51.980;5.734;2023-03-25T08:56:19;100070.94;;;8.15;100.00
48790;BME280;41718;51.980;5.734;2023-03-25T09:01:20;100071.66;;;8.00;100.00
48790;BME280;41718;51.980;5.734;2023-03-25T09:06:22;100072.44;;;7.94;100.00
48790;BME280;41718;51.980;5.734;2023-03-25T09:11:24;100056.00;;;7.88;100.00
48790;BME280;41718;51.980;5.734;2023-03-25T09:16:36;100057.88;;;8.00;100.00
48790;BME280;41718;51.980;5.734;2023-03-25T09:21:38;100063.94;;;8.03;100.00
48790;BME280;41718;51.980;5.734;2023-03-25T09:26:40;100073.25;;;7.92;100.00
48790;BME280;41718;51.980;5.734;2023-03-25T09:31:41;100082.53;;;7.79;100.00
48790;BME280;41718;51.980;5.734;2023-03-25T09:36:43;100079.94;;;7.78;100.00
48790;BME280;41718;51.980;5.734;2023-03-25T09:42:47;100081.19;;;8.10;100.00
48790;BME280;41718;51.980;5.734;2023-03-25T09:47:49;100103.56;;;8.13;100.00
48790;BME280;41718;51.980;5.734;2023-03-25T10:03:56;100095.97;;;9.04;100.00
48790;BME280;41718;51.980;5.734;2023-03-25T10:09:14;100095.00;;;8.93;100.00
48790;BME280;41718;51.980;5.734;2023-03-25T10:14:23;100093.38;;;9.02;100.00
48790;BME280;41718;51.980;5.734;2023-03-25T10:29:56;100101.09;;;8.98;100.00
48790;BME280;41718;51.980;5.734;2023-03-25T10:35:00;100093.09;;;8.72;100.00
48790;BME280;41718;51.980;5.734;2023-03-25T10:40:32;100106.97;;;8.85;100.00
48790;BME280;41718;51.980;5.734;2023-03-25T10:45:36;100111.19;;;8.75;100.00
48790;BME280;41718;51.980;5.734;2023-03-25T10:50:40;100109.78;;;8.32;100.00
48790;BME280;41718;51.980;5.734;2023-03-25T10:55:47;100117.69;;;8.42;100.00
48790;BME280;41718;51.980;5.734;2023-03-25T11:00:53;100114.50;;;8.63;100.00
48790;BME280;41718;51.980;5.734;2023-03-25T11:05:55;100111.13;;;8.73;100.00
48790;BME280;41718;51.980;5.734;2023-03-25T11:10:58;100116.44;;;8.86;100.00
48790;BME280;41718;51.980;5.734;2023-03-25T11:16:04;100107.97;;;9.00;100.00
48790;BME280;41718;51.980;5.734;2023-03-25T11:21:11;100117.31;;;8.88;100.00
48790;BME280;41718;51.980;5.734;2023-03-25T11:26:22;100123.03;;;8.59;100.00
48790;BME280;41718;51.980;5.734;2023-03-25T11:31:26;100126.59;;;8.72;100.00
48790;BME280;41718;51.980;5.734;2023-03-25T11:36:30;100127.78;;;9.03;100.00
48790;BME280;41718;51.980;5.734;2023-03-25T11:41:34;100119.44;;;9.32;100.00
48790;BME280;41718;51.980;5.734;2023-03-25T11:46:48;100121.41;;;9.65;100.00
48790;BME280;41718;51.980;5.734;2023-03-25T11:52:14;100119.06;;;10.07;100.00
48790;BME280;41718;51.980;5.734;2023-03-25T11:57:24;100100.16;;;10.19;100.00
48790;BME280;41718;51.980;5.734;2023-03-25T12:02:36;100104.59;;;10.42;100.00
48790;BME280;41718;51.980;5.734;2023-03-25T12:07:42;100090.75;;;10.27;100.00
48790;BME280;41718;51.980;5.734;2023-03-25T12:23:01;100082.84;;;9.98;100.00
48790;BME280;41718;51.980;5.734;2023-03-25T12:39:04;100111.69;;;8.43;100.00
48790;BME280;41718;51.980;5.734;2023-03-25T13:05:24;100112.31;;;9.03;100.00
48790;BME280;41718;51.980;5.734;2023-03-25T13:10:32;100112.66;;;9.44;100.00
48790;BME280;41718;51.980;5.734;2023-03-25T13:15:39;100110.06;;;9.44;100.00
48790;BME280;41718;51.980;5.734;2023-03-25T13:20:48;100120.44;;;9.52;100.00
48790;BME280;41718;51.980;5.734;2023-03-25T13:26:01;100132.59;;;9.70;100.00
48790;BME280;41718;51.980;5.734;2023-03-25T13:31:09;100120.66;;;9.86;100.00
48790;BME280;41718;51.980;5.734;2023-03-25T13:36:21;100123.31;;;9.96;100.00
48790;BME280;41718;51.980;5.734;2023-03-25T13:42:21;100119.06;;;10.09;100.00
48790;BME280;41718;51.980;5.734;2023-03-25T13:47:14;100114.78;;;10.11;100.00
48790;BME280;41718;51.980;5.734;2023-03-25T13:52:18;100112.31;;;10.28;100.00
48790;BME280;41718;51.980;5.734;2023-03-25T14:13:01;100134.47;;;9.92;100.00
48790;BME280;41718;51.980;5.734;2023-03-25T14:18:14;100121.66;;;10.07;100.00
48790;BME280;41718;51.980;5.734;2023-03-25T14:23:18;100132.78;;;9.96;100.00
48790;BME280;41718;51.980;5.734;2023-03-25T14:28:39;100179.56;;;9.24;100.00
48790;BME280;41718;51.980;5.734;2023-03-25T14:39:36;100182.25;;;7.92;100.00
48790;BME280;41718;51.980;5.734;2023-03-25T14:44:43;100183.56;;;8.23;100.00
48790;BME280;41718;51.980;5.734;2023-03-25T14:55:14;100176.19;;;9.27;100.00
48790;BME280;41718;51.980;5.734;2023-03-25T15:00:29;100161.84;;;9.63;100.00
48790;BME280;41718;51.980;5.734;2023-03-25T15:05:35;100177.53;;;9.87;100.00
48790;BME280;41718;51.980;5.734;2023-03-25T15:10:39;100175.94;;;10.15;100.00
48790;BME280;41718;51.980;5.734;2023-03-25T15:20:45;100185.66;;;10.51;100.00
48790;BME280;41718;51.980;5.734;2023-03-25T15:25:52;100154.53;;;10.30;100.00
48790;BME280;41718;51.980;5.734;2023-03-25T15:31:20;100165.78;;;10.40;100.00
48790;BME280;41718;51.980;5.734;2023-03-25T15:36:40;100153.69;;;10.37;100.00
48790;BME280;41718;51.980;5.734;2023-03-25T15:42:02;100163.19;;;10.41;100.00
48790;BME280;41718;51.980;5.734;2023-03-25T15:47:44;100177.88;;;10.47;100.00
48790;BME280;41718;51.980;5.734;2023-03-25T15:58:10;100187.34;;;10.39;100.00
48790;BME280;41718;51.980;5.734;2023-03-25T16:03:34;100191.59;;;10.30;100.00
48790;BME280;41718;51.980;5.734;2023-03-25T16:08:41;100204.44;;;10.21;100.00
48790;BME280;41718;51.980;5.734;2023-03-25T16:13:43;100241.44;;;9.18;100.00
48790;BME280;41718;51.980;5.734;2023-03-25T16:18:45;100232.59;;;8.93;100.00
48790;BME280;41718;51.980;5.734;2023-03-25T16:23:51;100237.75;;;8.92;100.00
48790;BME280;41718;51.980;5.734;2023-03-25T16:29:08;100235.31;;;9.06;100.00
48790;BME280;41718;51.980;5.734;2023-03-25T16:34:12;100239.66;;;9.08;100.00
48790;BME280;41718;51.980;5.734;2023-03-25T16:39:15;100236.34;;;9.21;100.00
48790;BME280;41718;51.980;5.734;2023-03-25T16:44:30;100238.50;;;9.67;100.00
48790;BME280;41718;51.980;5.734;2023-03-25T16:49:34;100241.97;;;9.75;100.00
48790;BME280;41718;51.980;5.734;2023-03-25T16:54:55;100243.75;;;9.80;100.00
48790;BME280;41718;51.980;5.734;2023-03-25T17:00:19;100259.19;;;9.74;100.00
48790;BME280;41718;51.980;5.734;2023-03-25T17:05:26;100263.56;;;9.78;100.00
48790;BME280;41718;51.980;5.734;2023-03-25T17:10:31;100308.16;;;9.59;100.00
48790;BME280;41718;51.980;5.734;2023-03-25T17:15:33;100294.28;;;8.78;100.00
48790;BME280;41718;51.980;5.734;2023-03-25T17:20:40;100301.16;;;8.74;100.00
48790;BME280;41718;51.980;5.734;2023-03-25T17:25:53;100327.75;;;8.73;100.00
48790;BME280;41718;51.980;5.734;2023-03-25T17:30:56;100358.75;;;8.22;100.00
48790;BME280;41718;51.980;5.734;2023-03-25T17:36:00;100362.53;;;7.92;100.00
48790;BME280;41718;51.980;5.734;2023-03-25T17:41:05;100371.88;;;7.86;100.00
48790;BME280;41718;51.980;5.734;2023-03-25T17:46:07;100379.28;;;7.69;100.00
48790;BME280;41718;51.980;5.734;2023-03-25T17:51:11;100373.16;;;7.64;100.00
48790;BME280;41718;51.980;5.734;2023-03-25T17:56:26;100381.84;;;7.67;100.00
48790;BME280;41718;51.980;5.734;2023-03-25T18:01:29;100402.44;;;7.69;100.00
48790;BME280;41718;51.980;5.734;2023-03-25T18:06:31;100404.88;;;7.61;100.00
48790;BME280;41718;51.980;5.734;2023-03-25T18:11:33;100426.38;;;7.63;100.00
48790;BME280;41718;51.980;5.734;2023-03-25T18:16:35;100427.13;;;7.58;100.00
48790;BME280;41718;51.980;5.734;2023-03-25T18:21:36;100438.41;;;7.64;100.00
48790;BME280;41718;51.980;5.734;2023-03-25T18:26:39;100451.31;;;7.66;100.00
48790;BME280;41718;51.980;5.734;2023-03-25T18:31:43;100457.44;;;7.73;100.00
48790;BME280;41718;51.980;5.734;2023-03-25T18:36:44;100457.50;;;7.76;100.00
48790;BME280;41718;51.980;5.734;2023-03-25T18:41:46;100466.16;;;7.78;100.00
48790;BME280;41718;51.980;5.734;2023-03-25T18:46:49;100454.19;;;7.81;100.00
48790;BME280;41718;51.980;5.734;2023-03-25T18:51:51;100479.13;;;7.84;100.00
48790;BME280;41718;51.980;5.734;2023-03-25T18:56:52;100460.94;;;7.76;100.00
48790;BME280;41718;51.980;5.734;2023-03-25T19:01:55;100456.38;;;7.61;100.00
48790;BME280;41718;51.980;5.734;2023-03-25T19:06:57;100453.50;;;7.48;100.00
48790;BME280;41718;51.980;5.734;2023-03-25T19:12:02;100451.75;;;7.45;100.00
48790;BME280;41718;51.980;5.734;2023-03-25T19:17:03;100448.97;;;7.36;100.00
48790;BME280;41718;51.980;5.734;2023-03-25T19:22:06;100469.22;;;7.21;100.00
48790;BME280;41718;51.980;5.734;2023-03-25T19:27:10;100476.78;;;7.14;100.00
48790;BME280;41718;51.980;5.734;2023-03-25T19:32:14;100469.72;;;7.04;100.00
48790;BME280;41718;51.980;5.734;2023-03-25T19:37:17;100474.88;;;7.04;100.00
48790;BME280;41718;51.980;5.734;2023-03-25T19:42:20;100485.00;;;6.98;100.00
48790;BME280;41718;51.980;5.734;2023-03-25T19:47:22;100473.91;;;7.01;100.00
48790;BME280;41718;51.980;5.734;2023-03-25T19:52:24;100476.41;;;6.98;100.00
48790;BME280;41718;51.980;5.734;2023-03-25T19:57:26;100469.34;;;6.89;100.00
48790;BME280;41718;51.980;5.734;2023-03-25T20:02:34;100470.25;;;6.91;100.00
48790;BME280;41718;51.980;5.734;2023-03-25T20:07:38;100478.53;;;6.79;100.00
48790;BME280;41718;51.980;5.734;2023-03-25T20:12:46;100474.25;;;6.78;100.00
48790;BME280;41718;51.980;5.734;2023-03-25T20:17:59;100473.38;;;6.78;100.00
48790;BME280;41718;51.980;5.734;2023-03-25T20:23:02;100484.69;;;6.86;100.00
48790;BME280;41718;51.980;5.734;2023-03-25T20:28:04;100471.94;;;6.89;100.00
48790;BME280;41718;51.980;5.734;2023-03-25T20:33:06;100476.09;;;6.84;100.00
48790;BME280;41718;51.980;5.734;2023-03-25T20:38:09;100479.56;;;6.86;100.00
48790;BME280;41718;51.980;5.734;2023-03-25T20:43:15;100482.81;;;6.79;100.00
48790;BME280;41718;51.980;5.734;2023-03-25T20:48:16;100483.06;;;6.89;100.00
48790;BME280;41718;51.980;5.734;2023-03-25T20:53:19;100497.63;;;6.89;100.00
48790;BME280;41718;51.980;5.734;2023-03-25T20:58:23;100495.91;;;6.88;100.00
48790;BME280;41718;51.980;5.734;2023-03-25T21:03:26;100508.03;;;6.94;100.00
48790;BME280;41718;51.980;5.734;2023-03-25T21:08:33;100515.72;;;6.92;100.00
48790;BME280;41718;51.980;5.734;2023-03-25T21:13:36;100518.19;;;6.87;100.00
48790;BME280;41718;51.980;5.734;2023-03-25T21:18:38;100534.53;;;6.91;100.00
48790;BME280;41718;51.980;5.734;2023-03-25T21:23:43;100541.66;;;7.03;100.00
48790;BME280;41718;51.980;5.734;2023-03-25T21:28:53;100542.63;;;7.06;100.00
48790;BME280;41718;51.980;5.734;2023-03-25T21:33:56;100550.56;;;7.15;100.00
48790;BME280;41718;51.980;5.734;2023-03-25T21:39:00;100544.50;;;7.13;100.00
48790;BME280;41718;51.980;5.734;2023-03-25T21:44:03;100554.13;;;7.21;100.00
48790;BME280;41718;51.980;5.734;2023-03-25T21:49:13;100549.91;;;7.24;100.00
48790;BME280;41718;51.980;5.734;2023-03-25T21:54:16;100555.03;;;7.23;100.00
48790;BME280;41718;51.980;5.734;2023-03-25T21:59:20;100554.13;;;7.21;100.00
48790;BME280;41718;51.980;5.734;2023-03-25T22:04:26;100555.84;;;7.22;100.00
48790;BME280;41718;51.980;5.734;2023-03-25T22:09:31;100564.50;;;7.25;100.00
48790;BME280;41718;51.980;5.734;2023-03-25T22:14:34;100569.63;;;7.25;100.00
48790;BME280;41718;51.980;5.734;2023-03-25T22:19:37;100573.88;;;7.22;100.00
48790;BME280;41718;51.980;5.734;2023-03-25T22:24:41;100578.31;;;7.29;100.00
48790;BME280;41718;51.980;5.734;2023-03-25T22:29:44;100574.78;;;7.25;100.00
48790;BME280;41718;51.980;5.734;2023-03-25T22:34:46;100588.47;;;7.23;100.00
48790;BME280;41718;51.980;5.734;2023-03-25T22:39:48;100591.06;;;7.24;100.00
48790;BME280;41718;51.980;5.734;2023-03-25T22:44:53;100601.28;;;7.21;100.00
48790;BME280;41718;51.980;5.734;2023-03-25T22:49:56;100608.16;;;7.21;100.00
48790;BME280;41718;51.980;5.734;2023-03-25T22:55:01;100608.03;;;7.16;100.00
48790;BME280;41718;51.980;5.734;2023-03-25T23:00:08;100606.19;;;7.12;100.00
48790;BME280;41718;51.980;5.734;2023-03-25T23:05:19;100608.69;;;7.09;100.00
48790;BME280;41718;51.980;5.734;2023-03-25T23:10:20;100614.78;;;7.12;100.00
48790;BME280;41718;51.980;5.734;2023-03-25T23:15:23;100621.53;;;7.09;100.00
48790;BME280;41718;51.980;5.734;2023-03-25T23:20:31;100620.69;;;7.08;100.00
48790;BME280;41718;51.980;5.734;2023-03-25T23:25:37;100607.59;;;6.99;100.00
48790;BME280;41718;51.980;5.734;2023-03-25T23:30:43;100607.50;;;6.96;100.00
48790;BME280;41718;51.980;5.734;2023-03-25T23:35:50;100613.66;;;7.01;100.00
48790;BME280;41718;51.980;5.734;2023-03-25T23:41:12;100613.66;;;7.01;100.00
48790;BME280;41718;51.980;5.734;2023-03-25T23:46:14;100619.63;;;7.00;100.00
48790;BME280;41718;51.980;5.734;2023-03-25T23:51:19;100612.69;;;6.98;100.00
48790;BME280;41718;51.980;5.734;2023-03-25T23:56:23;100615.16;;;6.93;100.00
